Time;durP1;ratioP1;P1;durP2;ratioP2;P2;SDS_P1;SDS_P2;PMS_P1;PMS_P2;Temp;Humidity;BMP_temperature;BMP_pressure;BME280_temperature;BME280_humidity;BME280_pressure;Samples;Min_cycle;Max_cycle;Signal;HPM_P1;HPM_P2
2022/01/18 00:00:39;;;;;;;100.18;8.63;;;;;;;;;;5085616;28;20083;-70
2022/01/18 00:03:07;;;;;;;78.50;8.30;;;;;;;;;;5078340;28;20589;-70
2022/01/18 00:05:35;;;;;;;83.03;7.53;;;;;;;;;;5082114;28;20063;-70
2022/01/18 00:08:02;;;;;;;91.13;8.00;;;;;;;;;;5081298;28;20060;-70
2022/01/18 00:10:31;;;;;;;108.65;10.05;;;;;;;;;;5079695;28;20059;-70
2022/01/18 00:13:22;;;;;;;90.45;8.23;;;;;;;;;;5081298;28;20542;-70
2022/01/18 00:16:10;;;;;;;93.68;10.48;;;;;;;;;;5086275;28;20054;-71
2022/01/18 00:18:38;;;;;;;83.88;7.63;;;;;;;;;;5080984;28;20039;-71
2022/01/18 00:21:19;;;;;;;94.20;9.05;;;;;;;;;;5083397;28;20421;-70
2022/01/18 00:23:48;;;;;;;94.88;8.82;;;;;;;;;;5082343;28;20070;-70
2022/01/18 00:26:17;;;;;;;92.35;8.15;;;;;;;;;;5082112;28;20052;-70
2022/01/18 00:28:50;;;;;;;102.30;9.75;;;;;;;;;;5086097;28;20091;-70
2022/01/18 00:34:07;;;;;;;96.68;8.82;;;;;;;;;;5082121;28;20048;-70
2022/01/18 00:36:41;;;;;;;84.38;7.90;;;;;;;;;;5081947;28;20150;-70
2022/01/18 00:39:09;;;;;;;98.15;8.18;;;;;;;;;;5080031;28;20054;-70
2022/01/18 00:41:37;;;;;;;92.35;8.63;;;;;;;;;;5080948;28;20051;-70
2022/01/18 00:44:05;;;;;;;81.97;8.88;;;;;;;;;;5079403;28;20052;-70
2022/01/18 00:46:34;;;;;;;87.90;8.25;;;;;;;;;;5083092;28;20055;-70
2022/01/18 00:49:02;;;;;;;84.93;8.55;;;;;;;;;;5082228;28;20099;-70
2022/01/18 00:51:30;;;;;;;78.85;8.35;;;;;;;;;;5079904;28;20075;-70
2022/01/18 00:53:59;;;;;;;96.30;9.23;;;;;;;;;;5083216;28;20449;-71
2022/01/18 00:56:28;;;;;;;88.82;8.23;;;;;;;;;;5079849;28;20087;-71
2022/01/18 00:58:56;;;;;;;66.90;7.00;;;;;;;;;;5080085;28;20135;-70
2022/01/18 01:01:24;;;;;;;79.15;7.20;;;;;;;;;;5082555;28;20188;-70
2022/01/18 01:03:56;;;;;;;87.20;7.65;;;;;;;;;;5081218;28;20051;-70
2022/01/18 01:06:23;;;;;;;80.95;8.63;;;;;;;;;;5081576;28;20048;-70
2022/01/18 01:08:51;;;;;;;73.68;6.68;;;;;;;;;;5079422;28;20550;-70
2022/01/18 01:11:18;;;;;;;91.30;7.55;;;;;;;;;;5081753;28;20059;-70
2022/01/18 01:13:47;;;;;;;98.50;8.48;;;;;;;;;;5079883;28;20059;-71
2022/01/18 01:16:41;;;;;;;65.22;6.57;;;;;;;;;;5078676;28;20056;-70
2022/01/18 01:19:24;;;;;;;77.50;7.10;;;;;;;;;;5079197;28;20399;-70
2022/01/18 01:36:05;;;;;;;74.53;6.85;;;;;;;;;;5039692;28;20056;-70
2022/01/18 01:44:06;;;;;;;79.60;7.50;;;;;;;;;;5077165;28;20408;-70
2022/01/18 01:46:34;;;;;;;66.07;7.57;;;;;;;;;;5082125;28;20044;-70
2022/01/18 01:49:04;;;;;;;88.53;7.88;;;;;;;;;;5082172;28;20043;-71
2022/01/18 01:51:32;;;;;;;92.40;8.45;;;;;;;;;;5081477;28;20422;-71
2022/01/18 01:54:00;;;;;;;90.72;8.27;;;;;;;;;;5081771;28;20060;-70
2022/01/18 01:56:28;;;;;;;92.85;8.48;;;;;;;;;;5084326;28;20060;-70
2022/01/18 01:58:56;;;;;;;76.97;7.22;;;;;;;;;;5081098;28;20154;-70
2022/01/18 02:01:23;;;;;;;68.95;6.43;;;;;;;;;;5085647;28;20071;-70
2022/01/18 02:03:50;;;;;;;72.13;7.43;;;;;;;;;;5078585;28;20064;-70
2022/01/18 02:06:18;;;;;;;60.00;6.25;;;;;;;;;;5080373;28;20048;-70
2022/01/18 02:08:46;;;;;;;67.70;6.18;;;;;;;;;;5079936;28;20121;-70
2022/01/18 02:11:15;;;;;;;61.83;5.80;;;;;;;;;;5081342;28;20047;-70
2022/01/18 02:13:42;;;;;;;67.75;6.20;;;;;;;;;;5078343;28;20547;-70
2022/01/18 02:16:16;;;;;;;67.47;5.65;;;;;;;;;;5080444;28;20712;-70
2022/01/18 02:21:48;;;;;;;51.65;4.82;;;;;;;;;;5080050;28;20059;-70
2022/01/18 02:24:16;;;;;;;51.45;5.55;;;;;;;;;;5083119;28;20076;-70
2022/01/18 02:26:43;;;;;;;44.40;4.65;;;;;;;;;;5081680;28;20063;-70
2022/01/18 02:29:11;;;;;;;59.55;5.85;;;;;;;;;;5078088;28;20434;-70
2022/01/18 02:31:39;;;;;;;60.72;6.30;;;;;;;;;;5080981;28;20503;-70
2022/01/18 02:34:07;;;;;;;52.63;5.15;;;;;;;;;;5078090;28;20503;-71
2022/01/18 02:36:35;;;;;;;46.17;4.57;;;;;;;;;;5083760;28;20052;-71
2022/01/18 02:39:03;;;;;;;45.63;4.25;;;;;;;;;;5091924;28;20098;-71
2022/01/18 02:41:31;;;;;;;46.70;4.75;;;;;;;;;;5083828;28;20134;-70
2022/01/18 02:43:59;;;;;;;34.13;3.60;;;;;;;;;;5082331;28;20055;-70
2022/01/18 02:46:27;;;;;;;36.72;4.03;;;;;;;;;;5079668;28;20048;-70
2022/01/18 02:48:55;;;;;;;41.97;4.07;;;;;;;;;;5080931;28;20125;-70
2022/01/18 02:51:23;;;;;;;36.35;3.83;;;;;;;;;;5087970;28;20134;-70
2022/01/18 02:53:57;;;;;;;35.28;3.50;;;;;;;;;;5083424;28;20077;-70
2022/01/18 02:56:24;;;;;;;49.28;3.95;;;;;;;;;;5081358;28;20048;-70
2022/01/18 02:58:57;;;;;;;36.33;3.45;;;;;;;;;;5084070;28;20052;-70
2022/01/18 03:04:09;;;;;;;37.25;3.90;;;;;;;;;;5078365;28;20409;-71
2022/01/18 03:06:37;;;;;;;36.85;3.70;;;;;;;;;;5086972;28;20055;-71
2022/01/18 03:09:05;;;;;;;34.03;3.22;;;;;;;;;;5083313;28;20601;-71
2022/01/18 03:11:32;;;;;;;28.98;2.95;;;;;;;;;;5085650;28;20392;-71
2022/01/18 03:14:00;;;;;;;39.17;3.67;;;;;;;;;;5082105;28;20053;-70
2022/01/18 03:16:27;;;;;;;46.20;3.42;;;;;;;;;;5080478;28;20052;-70
2022/01/18 03:18:54;;;;;;;39.92;3.85;;;;;;;;;;5085706;28;20056;-70
2022/01/18 03:21:21;;;;;;;32.20;3.03;;;;;;;;;;5083047;28;20063;-70
2022/01/18 03:23:53;;;;;;;44.60;4.03;;;;;;;;;;5079408;28;20101;-70
2022/01/18 03:26:31;;;;;;;36.38;3.63;;;;;;;;;;5083610;28;20052;-70
2022/01/18 03:28:57;;;;;;;44.38;4.07;;;;;;;;;;5079474;28;20105;-70
2022/01/18 03:31:24;;;;;;;32.80;4.03;;;;;;;;;;5080966;28;20045;-70
2022/01/18 03:33:52;;;;;;;34.92;3.03;;;;;;;;;;5089370;28;20056;-70
2022/01/18 03:36:19;;;;;;;33.25;3.50;;;;;;;;;;5081334;28;20429;-70
2022/01/18 03:38:46;;;;;;;38.95;4.57;;;;;;;;;;5081558;28;20052;-70
2022/01/18 03:41:13;;;;;;;30.60;3.05;;;;;;;;;;5085873;28;20048;-71
2022/01/18 03:43:42;;;;;;;26.13;2.70;;;;;;;;;;5083212;28;21197;-71
2022/01/18 03:46:10;;;;;;;40.63;4.15;;;;;;;;;;5083115;28;20157;-71
2022/01/18 03:48:38;;;;;;;38.92;3.60;;;;;;;;;;5082773;28;20122;-70
2022/01/18 03:51:08;;;;;;;36.08;3.35;;;;;;;;;;5078458;28;20381;-71
2022/01/18 03:53:35;;;;;;;32.88;3.97;;;;;;;;;;5083028;28;20584;-70
2022/01/18 03:56:02;;;;;;;49.60;4.18;;;;;;;;;;5087715;28;20055;-70
2022/01/18 03:58:30;;;;;;;37.70;4.03;;;;;;;;;;5079196;28;20158;-70
2022/01/18 04:00:59;;;;;;;29.98;2.92;;;;;;;;;;5082568;28;20052;-70
2022/01/18 04:03:26;;;;;;;36.45;4.45;;;;;;;;;;5083707;28;20056;-70
2022/01/18 04:05:53;;;;;;;41.97;4.32;;;;;;;;;;5077821;28;20056;-70
2022/01/18 04:08:21;;;;;;;35.67;3.72;;;;;;;;;;5090127;28;20863;-70
2022/01/18 04:10:48;;;;;;;38.13;3.63;;;;;;;;;;5082082;28;20144;-70
2022/01/18 04:13:15;;;;;;;45.00;4.90;;;;;;;;;;5082151;28;20040;-70
2022/01/18 04:15:43;;;;;;;37.33;3.53;;;;;;;;;;5087883;28;20047;-70
2022/01/18 04:18:26;;;;;;;40.55;3.83;;;;;;;;;;5081306;28;20192;-70
2022/01/18 04:29:09;;;;;;;47.88;3.88;;;;;;;;;;5081650;28;20048;-71
2022/01/18 04:31:37;;;;;;;34.20;4.28;;;;;;;;;;5084901;28;20123;-71
2022/01/18 04:34:05;;;;;;;40.50;4.63;;;;;;;;;;5082517;28;20048;-70
2022/01/18 04:36:33;;;;;;;41.05;3.72;;;;;;;;;;5084160;28;20047;-70
2022/01/18 04:39:00;;;;;;;40.70;4.07;;;;;;;;;;5087688;28;20484;-70
2022/01/18 04:41:30;;;;;;;36.63;3.47;;;;;;;;;;5079802;28;20109;-70
2022/01/18 04:48:23;;;;;;;37.08;4.18;;;;;;;;;;5077038;28;20044;-70
2022/01/18 04:49:42;;;;;;;33.40;3.80;;;;;;;;;;5081866;28;20136;-71
2022/01/18 04:52:11;;;;;;;43.28;3.97;;;;;;;;;;5078206;28;20527;-71
2022/01/18 04:54:41;;;;;;;39.85;4.38;;;;;;;;;;5085505;28;20503;-70
2022/01/18 04:59:54;;;;;;;44.10;4.47;;;;;;;;;;5086250;28;20060;-70
2022/01/18 05:02:21;;;;;;;37.33;4.93;;;;;;;;;;5083134;28;20891;-70
2022/01/18 05:04:50;;;;;;;46.72;4.50;;;;;;;;;;5081434;28;20051;-70
2022/01/18 05:07:18;;;;;;;42.67;4.57;;;;;;;;;;5078179;28;20079;-71
2022/01/18 05:09:49;;;;;;;34.30;4.28;;;;;;;;;;5083434;28;20047;-71
2022/01/18 05:12:26;;;;;;;35.08;4.95;;;;;;;;;;5078402;28;20063;-71
2022/01/18 05:14:54;;;;;;;44.03;4.85;;;;;;;;;;5079377;28;20041;-71
2022/01/18 05:17:38;;;;;;;39.30;4.57;;;;;;;;;;5082138;28;20875;-70
2022/01/18 05:23:00;;;;;;;38.38;4.10;;;;;;;;;;5080344;28;20444;-70
2022/01/18 05:25:29;;;;;;;44.78;4.80;;;;;;;;;;5084056;28;20072;-70
2022/01/18 05:27:57;;;;;;;38.35;4.70;;;;;;;;;;5078613;28;20148;-70
2022/01/18 05:30:24;;;;;;;52.60;4.95;;;;;;;;;;5080230;28;20376;-70
2022/01/18 05:32:52;;;;;;;45.80;4.85;;;;;;;;;;5083829;28;20756;-70
2022/01/18 05:35:20;;;;;;;45.85;4.95;;;;;;;;;;5080365;28;20106;-70
2022/01/18 05:37:48;;;;;;;49.88;5.30;;;;;;;;;;5086415;28;20067;-71
2022/01/18 05:40:15;;;;;;;52.22;4.95;;;;;;;;;;5081226;28;20053;-71
2022/01/18 05:42:43;;;;;;;36.20;4.78;;;;;;;;;;5082576;28;20571;-71
2022/01/18 05:45:10;;;;;;;47.63;5.82;;;;;;;;;;5080781;28;20063;-70
2022/01/18 05:47:38;;;;;;;44.78;5.50;;;;;;;;;;5082621;28;20048;-70
2022/01/18 05:50:06;;;;;;;48.55;5.97;;;;;;;;;;5079403;28;20068;-71
2022/01/18 05:52:34;;;;;;;46.42;6.05;;;;;;;;;;5087982;28;20052;-70
2022/01/18 05:55:02;;;;;;;45.45;6.10;;;;;;;;;;5077865;28;20052;-70
2022/01/18 05:57:29;;;;;;;48.42;6.25;;;;;;;;;;5086491;28;20071;-70
2022/01/18 06:00:02;;;;;;;56.50;6.45;;;;;;;;;;5080205;28;20105;-70
2022/01/18 06:02:41;;;;;;;78.80;8.18;;;;;;;;;;5079204;28;20048;-70
2022/01/18 06:07:55;;;;;;;106.47;9.43;;;;;;;;;;5077461;28;20101;-70
2022/01/18 06:10:22;;;;;;;109.82;9.73;;;;;;;;;;5079798;28;20044;-70
2022/01/18 06:12:49;;;;;;;144.88;10.73;;;;;;;;;;5083894;28;20514;-70
2022/01/18 06:15:16;;;;;;;259.50;14.60;;;;;;;;;;5078107;28;20101;-70
2022/01/18 06:17:44;;;;;;;166.57;10.90;;;;;;;;;;5074798;28;20048;-70
2022/01/18 06:20:11;;;;;;;248.52;10.88;;;;;;;;;;5076565;28;20059;-70
2022/01/18 06:22:39;;;;;;;144.25;7.45;;;;;;;;;;5074056;28;20048;-70
2022/01/18 06:25:08;;;;;;;131.55;7.53;;;;;;;;;;5079409;28;20044;-70
2022/01/18 06:27:35;;;;;;;175.48;7.40;;;;;;;;;;5091980;28;20109;-71
2022/01/18 06:30:04;;;;;;;231.98;9.35;;;;;;;;;;5078217;28;21188;-71
2022/01/18 06:32:31;;;;;;;151.75;7.68;;;;;;;;;;5074688;28;20573;-71
2022/01/18 06:34:58;;;;;;;188.93;10.10;;;;;;;;;;5082921;28;20104;-70
2022/01/18 06:37:25;;;;;;;213.00;9.30;;;;;;;;;;5078423;28;20055;-70
2022/01/18 06:39:53;;;;;;;192.20;8.05;;;;;;;;;;5079095;28;20052;-70
2022/01/18 06:42:24;;;;;;;256.90;9.43;;;;;;;;;;5082154;28;20142;-70
2022/01/18 06:44:51;;;;;;;187.80;8.68;;;;;;;;;;5077319;28;20056;-70
2022/01/18 06:47:18;;;;;;;276.23;8.93;;;;;;;;;;5084985;28;20052;-70
2022/01/18 06:49:46;;;;;;;444.88;13.68;;;;;;;;;;5076230;28;20052;-70
2022/01/18 06:52:13;;;;;;;323.10;9.95;;;;;;;;;;5074428;28;20056;-70
2022/01/18 06:54:40;;;;;;;155.13;6.03;;;;;;;;;;5077145;28;20499;-70
2022/01/18 06:57:08;;;;;;;164.63;5.60;;;;;;;;;;5080839;28;20051;-70
2022/01/18 06:59:36;;;;;;;163.98;7.35;;;;;;;;;;5081108;28;20607;-70
2022/01/18 07:02:04;;;;;;;207.10;5.78;;;;;;;;;;5082972;28;20051;-71
2022/01/18 07:04:31;;;;;;;137.55;6.78;;;;;;;;;;5075050;28;20693;-71
2022/01/18 07:06:59;;;;;;;325.55;8.88;;;;;;;;;;5076345;28;20047;-71
2022/01/18 07:09:26;;;;;;;87.68;5.03;;;;;;;;;;5080402;28;20535;-71
2022/01/18 07:11:54;;;;;;;90.55;4.93;;;;;;;;;;5074371;28;20098;-70
2022/01/18 07:14:21;;;;;;;167.05;6.30;;;;;;;;;;5076971;28;20119;-70
2022/01/18 07:16:50;;;;;;;80.90;4.65;;;;;;;;;;5078030;28;20483;-70
2022/01/18 07:19:17;;;;;;;95.30;5.38;;;;;;;;;;5076626;28;20060;-70
2022/01/18 07:21:45;;;;;;;85.78;4.90;;;;;;;;;;5077878;28;20052;-70
2022/01/18 07:24:17;;;;;;;57.75;4.70;;;;;;;;;;5084527;28;20473;-70
2022/01/18 07:26:46;;;;;;;68.87;4.93;;;;;;;;;;5074693;28;20098;-70
2022/01/18 07:29:13;;;;;;;58.67;4.60;;;;;;;;;;5077870;28;20101;-70
2022/01/18 07:31:40;;;;;;;284.52;9.68;;;;;;;;;;5095445;28;20059;-70
2022/01/18 07:34:13;;;;;;;141.57;5.63;;;;;;;;;;5081571;28;20060;-70
2022/01/18 07:36:40;;;;;;;98.82;5.97;;;;;;;;;;5080817;28;20052;-70
2022/01/18 07:39:07;;;;;;;95.45;5.65;;;;;;;;;;5075148;28;20428;-70
2022/01/18 07:41:35;;;;;;;172.38;7.28;;;;;;;;;;5085337;28;20063;-70
2022/01/18 07:44:02;;;;;;;159.50;7.35;;;;;;;;;;5081154;28;20059;-70
2022/01/18 07:46:29;;;;;;;102.82;6.95;;;;;;;;;;5078110;28;20400;-69
2022/01/18 07:48:56;;;;;;;113.45;8.45;;;;;;;;;;5081523;28;20048;-69
2022/01/18 07:51:25;;;;;;;129.75;8.43;;;;;;;;;;5079532;28;20105;-69
2022/01/18 07:53:52;;;;;;;210.77;8.23;;;;;;;;;;5080634;28;20060;-69
2022/01/18 07:56:19;;;;;;;219.55;8.85;;;;;;;;;;5087194;28;20040;-69
2022/01/18 07:58:46;;;;;;;182.43;11.57;;;;;;;;;;5085693;28;20056;-69
2022/01/18 08:01:14;;;;;;;142.75;5.82;;;;;;;;;;5082804;28;20765;-69
2022/01/18 08:03:41;;;;;;;117.10;4.80;;;;;;;;;;5088133;28;20052;-69
2022/01/18 08:06:09;;;;;;;114.00;6.53;;;;;;;;;;5078182;28;20040;-69
2022/01/18 08:08:39;;;;;;;88.05;5.00;;;;;;;;;;5084534;28;20498;-69
2022/01/18 08:11:06;;;;;;;85.68;6.38;;;;;;;;;;5084736;28;20062;-69
2022/01/18 08:13:39;;;;;;;73.18;5.68;;;;;;;;;;5085087;28;20486;-69
2022/01/18 08:16:34;;;;;;;58.15;5.05;;;;;;;;;;5082617;28;20056;-69
2022/01/18 08:19:02;;;;;;;120.30;6.70;;;;;;;;;;5081319;28;20074;-69
2022/01/18 08:21:29;;;;;;;111.07;5.40;;;;;;;;;;5082261;28;20072;-69
2022/01/18 08:23:57;;;;;;;99.72;4.00;;;;;;;;;;5080537;28;20442;-69
2022/01/18 08:26:25;;;;;;;76.53;4.60;;;;;;;;;;5082999;28;20049;-69
2022/01/18 08:28:52;;;;;;;71.07;3.83;;;;;;;;;;5083784;28;20056;-69
2022/01/18 08:31:19;;;;;;;48.45;3.53;;;;;;;;;;5082932;28;20471;-69
2022/01/18 08:33:46;;;;;;;45.22;4.13;;;;;;;;;;5084093;28;20056;-70
2022/01/18 08:36:14;;;;;;;43.13;3.88;;;;;;;;;;5078109;28;20052;-69
2022/01/18 08:38:41;;;;;;;55.70;3.90;;;;;;;;;;5083808;28;20059;-70
2022/01/18 08:41:09;;;;;;;78.88;4.45;;;;;;;;;;5079342;28;20098;-70
2022/01/18 08:43:37;;;;;;;62.33;4.32;;;;;;;;;;5081820;28;20109;-70
2022/01/18 08:46:05;;;;;;;142.98;5.50;;;;;;;;;;5085989;28;20051;-69
2022/01/18 08:48:34;;;;;;;99.00;5.00;;;;;;;;;;5083387;28;20522;-69
2022/01/18 08:51:01;;;;;;;61.72;5.13;;;;;;;;;;5077957;28;20047;-69
2022/01/18 08:53:29;;;;;;;113.55;7.05;;;;;;;;;;5083507;28;20097;-69
2022/01/18 08:55:56;;;;;;;92.82;5.80;;;;;;;;;;5079774;28;20059;-69
2022/01/18 08:58:26;;;;;;;77.60;5.60;;;;;;;;;;5082516;28;20052;-69
2022/01/18 09:00:53;;;;;;;55.05;5.38;;;;;;;;;;5082619;28;20093;-69
2022/01/18 09:03:20;;;;;;;48.95;4.97;;;;;;;;;;5080415;28;20052;-69
2022/01/18 09:05:48;;;;;;;39.42;4.57;;;;;;;;;;5083710;28;20542;-69
2022/01/18 09:08:15;;;;;;;89.50;6.53;;;;;;;;;;5081785;28;20044;-69
2022/01/18 09:10:44;;;;;;;62.45;5.15;;;;;;;;;;5079673;28;20052;-69
2022/01/18 09:13:11;;;;;;;62.08;4.93;;;;;;;;;;5084467;28;20048;-69
2022/01/18 09:15:40;;;;;;;75.03;4.20;;;;;;;;;;5077338;28;20052;-69
2022/01/18 09:18:07;;;;;;;48.97;4.65;;;;;;;;;;5078991;28;20500;-69
2022/01/18 09:20:34;;;;;;;95.32;4.28;;;;;;;;;;5082964;28;20048;-70
2022/01/18 09:23:02;;;;;;;40.85;3.95;;;;;;;;;;5081197;28;20044;-70
2022/01/18 09:25:30;;;;;;;32.67;3.30;;;;;;;;;;5083515;28;20711;-70
2022/01/18 09:27:58;;;;;;;37.70;3.00;;;;;;;;;;5083159;28;20048;-70
2022/01/18 09:30:26;;;;;;;77.60;4.43;;;;;;;;;;5080422;28;20109;-70
2022/01/18 09:32:55;;;;;;;71.72;5.13;;;;;;;;;;5083202;28;20520;-70
2022/01/18 09:35:23;;;;;;;63.70;4.25;;;;;;;;;;5084309;28;20059;-70
2022/01/18 09:37:50;;;;;;;92.80;4.63;;;;;;;;;;5079329;28;20054;-76
2022/01/18 09:40:19;;;;;;;160.63;6.88;;;;;;;;;;5083684;28;20048;-69
2022/01/18 09:42:46;;;;;;;68.25;6.40;;;;;;;;;;5078567;28;20067;-69
2022/01/18 09:45:14;;;;;;;80.72;6.88;;;;;;;;;;5078508;28;20068;-70
2022/01/18 09:47:43;;;;;;;85.63;5.53;;;;;;;;;;5082699;28;20479;-70
2022/01/18 09:50:13;;;;;;;75.43;4.95;;;;;;;;;;5078965;28;20056;-70
2022/01/18 09:52:40;;;;;;;112.90;5.97;;;;;;;;;;5082408;28;20048;-69
2022/01/18 09:55:09;;;;;;;102.05;6.32;;;;;;;;;;5082276;28;20047;-69
2022/01/18 09:57:36;;;;;;;93.57;6.60;;;;;;;;;;5074697;28;20483;-69
2022/01/18 10:00:04;;;;;;;42.55;5.70;;;;;;;;;;5074565;28;20109;-69
2022/01/18 10:02:31;;;;;;;69.80;6.22;;;;;;;;;;5077375;28;20116;-69
2022/01/18 10:05:00;;;;;;;59.20;6.57;;;;;;;;;;5077847;28;20105;-69
2022/01/18 10:07:36;;;;;;;115.95;8.57;;;;;;;;;;5078659;28;20444;-69
2022/01/18 10:10:07;;;;;;;63.75;7.07;;;;;;;;;;5077265;28;20066;-69
2022/01/18 10:12:34;;;;;;;104.25;8.50;;;;;;;;;;5076226;28;20491;-69
2022/01/18 10:15:04;;;;;;;96.43;9.63;;;;;;;;;;5077805;28;20082;-69
2022/01/18 10:17:32;;;;;;;59.10;7.95;;;;;;;;;;5074469;28;20385;-69
2022/01/18 10:20:04;;;;;;;67.28;8.90;;;;;;;;;;5076073;28;20528;-69
2022/01/18 10:22:39;;;;;;;101.32;11.60;;;;;;;;;;5076995;28;20064;-69
2022/01/18 10:25:18;;;;;;;105.18;10.70;;;;;;;;;;5078380;28;20052;-69
2022/01/18 10:27:47;;;;;;;197.02;11.60;;;;;;;;;;5075994;28;20048;-69
2022/01/18 10:30:20;;;;;;;86.68;9.05;;;;;;;;;;5077432;28;20119;-70
2022/01/18 10:32:47;;;;;;;;;;;;;;;;;;5083285;28;20055;-69
2022/01/18 10:35:15;;;;;;;252.55;10.90;;;;;;;;;;5077687;28;19964;-69
2022/01/18 10:37:43;;;;;;;110.63;9.00;;;;;;;;;;5082291;28;20424;-69
2022/01/18 10:40:14;;;;;;;189.38;11.07;;;;;;;;;;5077290;28;20056;-69
2022/01/18 10:42:47;;;;;;;143.25;8.73;;;;;;;;;;5081150;28;20052;-69
2022/01/18 10:45:16;;;;;;;187.55;9.63;;;;;;;;;;5072625;28;20087;-69
2022/01/18 10:47:51;;;;;;;165.57;11.38;;;;;;;;;;5077705;28;20540;-69
2022/01/18 10:50:18;;;;;;;185.05;10.25;;;;;;;;;;5079664;28;20052;-69
2022/01/18 10:52:46;;;;;;;173.30;10.25;;;;;;;;;;5081225;28;20059;-69
2022/01/18 10:55:16;;;;;;;158.77;9.82;;;;;;;;;;5080079;28;20055;-69
2022/01/18 10:57:44;;;;;;;96.57;7.07;;;;;;;;;;5082432;28;20048;-69
2022/01/18 11:00:14;;;;;;;83.68;6.78;;;;;;;;;;5089449;28;20537;-69
2022/01/18 11:02:42;;;;;;;99.88;7.30;;;;;;;;;;5083674;28;20050;-69
2022/01/18 11:05:14;;;;;;;48.58;6.70;;;;;;;;;;5081513;28;20059;-69
2022/01/18 11:07:41;;;;;;;85.63;6.43;;;;;;;;;;5086994;28;20040;-69
2022/01/18 11:10:09;;;;;;;40.10;6.53;;;;;;;;;;5079983;28;20452;-69
2022/01/18 11:13:02;;;;;;;61.58;6.22;;;;;;;;;;5085790;28;20505;-69
2022/01/18 11:15:32;;;;;;;56.27;6.23;;;;;;;;;;5081073;28;20398;-69
2022/01/18 11:18:02;;;;;;;55.88;6.50;;;;;;;;;;5085688;28;20301;-69
2022/01/18 11:20:31;;;;;;;25.88;6.35;;;;;;;;;;5083844;28;20051;-69
2022/01/18 11:22:58;;;;;;;38.70;6.80;;;;;;;;;;5085991;28;20055;-69
2022/01/18 11:25:26;;;;;;;60.40;6.95;;;;;;;;;;5086547;28;20105;-69
2022/01/18 11:27:56;;;;;;;38.40;7.78;;;;;;;;;;5087411;28;20475;-69
2022/01/18 11:30:25;;;;;;;38.58;7.72;;;;;;;;;;5082353;28;20060;-69
2022/01/18 11:32:55;;;;;;;153.68;13.68;;;;;;;;;;5086307;28;20055;-69
2022/01/18 11:35:25;;;;;;;53.50;9.88;;;;;;;;;;5080665;28;20102;-69
2022/01/18 11:37:59;;;;;;;129.30;11.07;;;;;;;;;;5079142;28;20048;-69
2022/01/18 11:40:26;;;;;;;;;;;;;;;;;;5077254;28;20051;-69
2022/01/18 11:42:55;;;;;;;49.63;7.45;;;;;;;;;;5077475;28;19920;-69
2022/01/18 11:45:37;;;;;;;57.83;7.47;;;;;;;;;;5084209;28;20593;-69
2022/01/18 11:48:11;;;;;;;45.47;7.57;;;;;;;;;;5089387;28;20514;-69
2022/01/18 11:50:41;;;;;;;53.58;7.20;;;;;;;;;;5087124;28;20052;-69
2022/01/18 11:53:22;;;;;;;68.72;7.40;;;;;;;;;;5082364;28;20656;-69
2022/01/18 11:55:49;;;;;;;80.55;8.82;;;;;;;;;;5080938;28;20044;-69
2022/01/18 11:58:16;;;;;;;77.15;7.80;;;;;;;;;;5082984;28;20808;-69
2022/01/18 12:00:50;;;;;;;66.63;7.30;;;;;;;;;;5080592;28;20047;-70
2022/01/18 12:03:20;;;;;;;70.85;9.75;;;;;;;;;;5079960;28;20075;-69
2022/01/18 12:05:48;;;;;;;49.95;7.85;;;;;;;;;;5078447;28;20388;-69
2022/01/18 12:08:32;;;;;;;85.22;8.93;;;;;;;;;;5079417;28;20056;-69
2022/01/18 12:11:00;;;;;;;63.92;8.30;;;;;;;;;;5079435;28;20056;-69
2022/01/18 12:13:29;;;;;;;36.88;7.88;;;;;;;;;;5084423;28;20063;-69
2022/01/18 12:15:57;;;;;;;71.97;9.05;;;;;;;;;;5080309;28;20621;-69
2022/01/18 12:18:27;;;;;;;92.40;10.52;;;;;;;;;;5085790;28;20488;-69
2022/01/18 12:20:55;;;;;;;83.55;10.25;;;;;;;;;;5078620;28;20125;-69
2022/01/18 12:23:22;;;;;;;79.50;10.55;;;;;;;;;;5079846;28;21403;-69
2022/01/18 12:25:59;;;;;;;55.92;10.02;;;;;;;;;;5078873;28;20404;-69
2022/01/18 12:28:47;;;;;;;146.30;11.48;;;;;;;;;;5080291;28;20083;-69
2022/01/18 12:31:40;;;;;;;93.18;9.90;;;;;;;;;;5077514;28;20087;-69
2022/01/18 12:34:30;;;;;;;74.70;10.45;;;;;;;;;;5078302;28;20067;-70
2022/01/18 12:37:19;;;;;;;122.82;9.80;;;;;;;;;;5076960;28;20064;-70
2022/01/18 12:40:05;;;;;;;162.55;14.98;;;;;;;;;;5081076;28;20137;-70
2022/01/18 12:45:15;;;;;;;79.30;10.38;;;;;;;;;;5046999;28;20048;-70
2022/01/18 12:47:45;;;;;;;73.90;9.98;;;;;;;;;;5079131;28;20503;-70
2022/01/18 12:50:15;;;;;;;91.25;11.00;;;;;;;;;;5078694;28;20109;-70
2022/01/18 12:52:46;;;;;;;36.22;9.32;;;;;;;;;;5080361;28;20500;-70
2022/01/18 12:55:25;;;;;;;43.10;10.27;;;;;;;;;;5082045;28;20405;-69
2022/01/18 12:57:58;;;;;;;54.92;9.43;;;;;;;;;;5076758;28;20059;-69
2022/01/18 13:00:25;;;;;;;43.55;9.98;;;;;;;;;;5082349;28;20055;-69
2022/01/18 13:02:52;;;;;;;46.33;10.15;;;;;;;;;;5075832;28;20059;-69
2022/01/18 13:05:21;;;;;;;136.85;11.57;;;;;;;;;;5081800;28;20053;-69
2022/01/18 13:07:51;;;;;;;77.50;10.70;;;;;;;;;;5076337;28;20106;-69
2022/01/18 13:10:19;;;;;;;46.42;12.13;;;;;;;;;;5083600;28;20051;-70
2022/01/18 13:12:46;;;;;;;43.55;10.52;;;;;;;;;;5085456;28;20056;-70
2022/01/18 13:15:23;;;;;;;48.22;12.32;;;;;;;;;;5084338;28;20118;-70
2022/01/18 13:23:31;;;;;;;43.65;12.40;;;;;;;;;;5082576;28;20516;-70
2022/01/18 13:26:01;;;;;;;52.55;12.50;;;;;;;;;;5081589;28;20138;-70
2022/01/18 13:28:33;;;;;;;72.07;13.10;;;;;;;;;;5078422;28;20044;-70
2022/01/18 13:31:14;;;;;;;78.80;11.70;;;;;;;;;;5079503;28;20516;-70
2022/01/18 13:33:51;;;;;;;46.50;13.52;;;;;;;;;;5079122;28;20212;-69
2022/01/18 13:36:21;;;;;;;49.30;14.48;;;;;;;;;;5073684;28;20047;-69
2022/01/18 13:38:49;;;;;;;44.08;15.70;;;;;;;;;;5082897;28;20407;-69
2022/01/18 13:41:16;;;;;;;68.85;15.90;;;;;;;;;;5078517;28;20511;-69
2022/01/18 13:43:43;;;;;;;33.50;14.27;;;;;;;;;;5079966;28;20120;-69
2022/01/18 13:46:11;;;;;;;70.20;15.15;;;;;;;;;;5077116;28;20142;-69
2022/01/18 13:48:38;;;;;;;72.25;14.40;;;;;;;;;;5080882;28;20048;-69
2022/01/18 13:51:14;;;;;;;75.20;14.45;;;;;;;;;;5079780;28;20087;-69
2022/01/18 13:53:43;;;;;;;86.38;14.90;;;;;;;;;;5080543;28;20135;-69
2022/01/18 13:56:12;;;;;;;78.07;16.40;;;;;;;;;;5074995;28;20103;-69
2022/01/18 13:58:42;;;;;;;72.97;15.00;;;;;;;;;;5083799;28;20039;-69
2022/01/18 14:01:10;;;;;;;64.65;14.85;;;;;;;;;;5078866;28;20071;-69
2022/01/18 14:03:38;;;;;;;81.07;15.57;;;;;;;;;;5079261;28;20059;-69
2022/01/18 14:06:06;;;;;;;30.92;12.77;;;;;;;;;;5077413;28;20052;-69
2022/01/18 14:08:37;;;;;;;33.35;12.00;;;;;;;;;;5081549;28;20399;-69
2022/01/18 14:11:07;;;;;;;45.47;12.13;;;;;;;;;;5085627;28;20048;-69
2022/01/18 14:13:37;;;;;;;58.53;14.50;;;;;;;;;;5075675;28;20052;-70
2022/01/18 14:16:04;;;;;;;45.83;12.50;;;;;;;;;;5075946;28;20106;-70
2022/01/18 14:18:50;;;;;;;65.22;11.05;;;;;;;;;;5083921;28;20491;-70
2022/01/18 14:21:24;;;;;;;91.22;12.18;;;;;;;;;;5075555;28;20060;-70
2022/01/18 14:24:06;;;;;;;119.88;12.52;;;;;;;;;;5076426;28;20063;-70
2022/01/18 14:26:35;;;;;;;184.30;13.45;;;;;;;;;;5074330;28;23414;-70
2022/01/18 14:29:04;;;;;;;135.18;12.02;;;;;;;;;;5079318;28;20045;-70
2022/01/18 14:31:31;;;;;;;126.45;10.90;;;;;;;;;;5077826;28;20048;-70
2022/01/18 14:33:58;;;;;;;170.95;15.77;;;;;;;;;;5084059;28;20092;-70
2022/01/18 14:36:26;;;;;;;86.97;12.32;;;;;;;;;;5076883;28;20052;-70
2022/01/18 14:39:05;;;;;;;88.78;13.10;;;;;;;;;;5077878;28;20113;-70
2022/01/18 14:41:32;;;;;;;76.80;11.55;;;;;;;;;;5081375;28;20052;-69
2022/01/18 14:44:09;;;;;;;66.28;11.50;;;;;;;;;;5078645;28;20446;-69
2022/01/18 14:46:57;;;;;;;93.35;10.43;;;;;;;;;;5078934;28;20048;-70
2022/01/18 14:49:25;;;;;;;65.05;10.80;;;;;;;;;;5078866;28;20047;-70
2022/01/18 14:51:52;;;;;;;112.32;12.38;;;;;;;;;;5084377;28;20060;-70
2022/01/18 14:54:19;;;;;;;51.92;11.43;;;;;;;;;;5081931;28;20541;-70
2022/01/18 14:56:46;;;;;;;66.20;11.77;;;;;;;;;;5084693;28;20507;-69
2022/01/18 14:59:15;;;;;;;127.45;12.88;;;;;;;;;;5083944;28;20066;-70
2022/01/18 15:01:48;;;;;;;146.88;13.13;;;;;;;;;;5078785;28;20055;-70
2022/01/18 15:04:15;;;;;;;60.83;12.45;;;;;;;;;;5090723;28;20553;-70
2022/01/18 15:06:43;;;;;;;81.10;14.00;;;;;;;;;;5085220;28;20044;-70
2022/01/18 15:09:10;;;;;;;61.83;13.90;;;;;;;;;;5081113;28;20049;-70
2022/01/18 15:11:37;;;;;;;53.00;14.57;;;;;;;;;;5081352;28;20044;-70
2022/01/18 15:14:04;;;;;;;71.55;15.82;;;;;;;;;;5079530;28;20456;-70
2022/01/18 15:16:34;;;;;;;84.28;17.65;;;;;;;;;;5082291;28;20080;-73
2022/01/18 15:19:01;;;;;;;62.58;16.45;;;;;;;;;;5082637;28;20089;-69
2022/01/18 15:21:29;;;;;;;63.33;16.60;;;;;;;;;;5080551;28;20049;-69
2022/01/18 15:23:57;;;;;;;95.65;18.33;;;;;;;;;;5082033;28;20070;-69
2022/01/18 15:26:27;;;;;;;68.82;18.20;;;;;;;;;;5083284;28;20040;-69
2022/01/18 15:28:54;;;;;;;97.40;19.42;;;;;;;;;;5085324;28;20082;-69
2022/01/18 15:31:21;;;;;;;57.17;18.08;;;;;;;;;;5080572;28;20049;-69
2022/01/18 15:33:50;;;;;;;63.25;19.17;;;;;;;;;;5083302;28;20507;-70